VE4UB Weather Reports


Display with metric or nautical units.
time (UTC)temp
F
wind
direction
speed
MPH
gust
MPH
rain 1hr
in
rain 24hr
in
rain mn
in
humidity
%
barometer
mb
20180124052659 22 271 0.0 3.0 0.00 0.00 0.00 99 1020.5
20180124051659 22 195 0.0 2.0 0.00 0.00 0.00 99 1020.5
20180124050659 22 214 3.0 4.0 0.00 0.00 0.00 99 1020.4
20180124045659 22 160 0.0 0.0 0.00 0.00 0.00 99 1020.3
20180124044659 21 188 4.0 6.0 0.00 0.00 0.00 99 1020.3
20180124043659 21 150 2.0 3.0 0.00 0.00 0.00 99 1020.4
20180124042659 21 231 4.0 4.0 0.00 0.00 0.00 99 1020.4
20180124041659 21 190 4.0 5.0 0.00 0.00 0.00 99 1020.5
20180124040659 21 205 3.0 5.0 0.00 0.00 0.00 99 1020.3
20180124035659 21 204 4.0 4.0 0.00 0.00 0.00 99 1020.4
20180124034659 21 183 4.0 5.0 0.00 0.00 0.00 99 1020.4
20180124033659 21 219 1.0 3.0 0.00 0.00 0.00 99 1020.5
20180124032659 21 197 0.0 3.0 0.00 0.00 0.00 99 1020.4
20180124031659 21 200 5.0 6.0 0.00 0.00 0.00 99 1020.5
20180124030659 21 271 5.0 5.0 0.00 0.00 0.00 99 1020.7
20180124025659 21 225 0.0 3.0 0.00 0.00 0.00 99 1020.6
20180124024658 21 226 4.0 5.0 0.00 0.00 0.00 99 1020.5
20180124023659 21 170 0.0 2.0 0.00 0.00 0.00 99 1020.6
20180124022658 21 194 0.0 0.0 0.00 0.00 0.00 99 1020.6
20180124021658 21 193 7.0 7.0 0.00 0.00 0.00 99 1020.6
20180124020658 21 205 7.0 7.0 0.00 0.00 0.00 99 1020.6
20180124015659 21 186 3.0 4.0 0.00 0.00 0.00 99 1020.6
20180124014658 20 253 7.0 8.0 0.00 0.00 0.00 99 1020.7
20180124013658 20 170 7.0 7.0 0.00 0.00 0.00 99 1020.7
20180124012658 20 238 3.0 5.0 0.00 0.00 0.00 99 1020.6
20180124011658 20 188 3.0 5.0 0.00 0.00 0.00 99 1020.4
20180124010659 20 180 5.0 6.0 0.00 0.00 0.00 99 1020.4
20180124005658 20 180 4.0 6.0 0.00 0.00 0.00 99 1020.4
20180124004658 20 214 4.0 5.0 0.00 0.00 0.00 99 1020.3
20180124003658 20 229 3.0 5.0 0.00 0.00 0.00 99 1020.5
20180124002658 20 202 8.0 8.0 0.00 0.00 0.00 99 1020.4
20180124001658 20 229 2.0 7.0 0.00 0.00 0.00 99 1020.4
20180124000700 20 207 5.0 7.0 0.00 0.00 0.00 99 1020.5
20180123235658 20 229 4.0 5.0 0.00 0.00 0.00 99 1020.6
20180123234658 20 188 3.0 5.0 0.00 0.00 0.00 99 1020.4
20180123233658 20 160 5.0 5.0 0.00 0.00 0.00 99 1020.5
20180123232658 20 211 6.0 8.0 0.00 0.00 0.00 99 1020.5
20180123231658 20 183 4.0 6.0 0.00 0.00 0.00 99 1020.5
20180123230658 19 177 6.0 6.0 0.00 0.00 0.00 99 1020.5
20180123225658 19 256 6.0 7.0 0.00 0.00 0.00 99 1020.5
20180123224658 19 228 6.0 8.0 0.00 0.00 0.00 99 1020.5
20180123223658 19 118 3.0 5.0 0.00 0.00 0.00 99 1020.5
20180123222658 19 166 6.0 8.0 0.00 0.00 0.00 99 1020.4
20180123221658 19 214 5.0 7.0 0.00 0.00 0.00 98 1020.4
20180123220658 19 179 5.0 5.0 0.00 0.00 0.00 98 1020.3
20180123215658 19 204 5.0 8.0 0.00 0.00 0.00 98 1020.3
20180123214658 19 188 6.0 6.0 0.00 0.00 0.00 98 1020.2
20180123213658 19 188 4.0 5.0 0.00 0.00 0.00 98 1020.0
20180123212658 19 224 8.0 8.0 0.00 0.00 0.00 97 1020.1
20180123211658 19 224 6.0 8.0 0.00 0.00 0.00 97 1020.0
20180123210658 19 205 8.0 10.0 0.00 0.00 0.00 97 1019.9
20180123205658 19 202 9.0 9.0 0.00 0.00 0.00 96 1019.9
20180123204658 19 183 9.0 9.0 0.00 0.00 0.00 96 1019.9
20180123203658 19 169 9.0 9.0 0.00 0.00 0.00 95 1019.9
20180123202658 19 222 7.0 10.0 0.00 0.00 0.00 95 1019.9
20180123201658 19 208 6.0 6.0 0.00 0.00 0.00 94 1019.9
20180123200658 19 202 5.0 8.0 0.00 0.00 0.00 94 1019.9
20180123195658 19 170 7.0 7.0 0.00 0.00 0.00 93 1020.0
20180123194658 19 228 5.0 8.0 0.00 0.00 0.00 93 1020.0
20180123193658 19 176 6.0 9.0 0.00 0.00 0.00 93 1020.0
20180123192657 19 248 6.0 7.0 0.00 0.00 0.00 93 1020.1
20180123191657 19 193 6.0 9.0 0.00 0.00 0.00 93 1020.1
20180123190657 19 188 9.0 9.0 0.00 0.00 0.00 93 1020.1
20180123185657 19 150 6.0 8.0 0.00 0.00 0.00 93 1020.1
20180123184657 19 172 10.0 10.0 0.00 0.00 0.00 93 1020.2
20180123183657 19 156 8.0 8.0 0.00 0.00 0.00 93 1020.3
20180123182657 19 186 7.0 7.0 0.00 0.00 0.00 93 1020.4
20180123181657 19 148 7.0 7.0 0.00 0.00 0.00 93 1020.3
20180123180657 19 156 4.0 8.0 0.00 0.00 0.00 93 1020.4
20180123175657 19 172 5.0 9.0 0.00 0.00 0.00 93 1020.4
20180123174657 19 218 9.0 9.0 0.00 0.00 0.00 94 1020.6
20180123173658 19 217 6.0 9.0 0.00 0.00 0.00 94 1020.6
20180123172657 19 187 7.0 7.0 0.00 0.00 0.00 94 1020.7
20180123171657 19 187 5.0 7.0 0.00 0.00 0.00 94 1020.7
20180123170657 19 162 4.0 8.0 0.00 0.00 0.00 94 1020.5
20180123165657 19 217 6.0 9.0 0.00 0.00 0.00 94 1020.4
20180123164657 19 167 10.0 10.0 0.00 0.00 0.00 93 1020.4
20180123163657 19 141 4.0 5.0 0.00 0.00 0.00 93 1020.4
20180123162657 19 177 6.0 6.0 0.00 0.00 0.00 93 1020.4
20180123161657 19 177 6.0 7.0 0.00 0.00 0.00 93 1020.3
20180123160657 19 112 4.0 5.0 0.00 0.00 0.00 93 1020.3
20180123155657 19 195 4.0 5.0 0.00 0.00 0.00 93 1020.3
20180123154657 19 146 3.0 4.0 0.00 0.00 0.00 94 1020.3
20180123153657 19 136 4.0 5.0 0.00 0.00 0.00 94 1020.2
20180123152657 19 173 5.0 5.0 0.00 0.00 0.00 94 1020.2
20180123151657 18 158 7.0 7.0 0.00 0.00 0.00 94 1020.1
20180123150657 18 141 3.0 7.0 0.00 0.00 0.00 94 1020.0
20180123145657 18 158 6.0 6.0 0.00 0.00 0.00 94 1020.0
20180123144657 18 176 4.0 6.0 0.00 0.00 0.00 94 1019.9
20180123143657 18 129 4.0 5.0 0.00 0.00 0.00 94 1019.8
20180123142657 18 181 4.0 4.0 0.00 0.00 0.00 94 1019.9
20180123141657 18 187 5.0 5.0 0.00 0.00 0.00 94 1019.9
20180123140657 18 134 4.0 4.0 0.00 0.00 0.00 94 1019.9
20180123135657 18 94 6.0 6.0 0.00 0.00 0.00 94 1019.9
20180123134657 18 165 4.0 6.0 0.00 0.00 0.00 94 1020.0
20180123133657 18 169 5.0 6.0 0.00 0.00 0.00 94 1019.9
20180123132657 18 153 7.0 8.0 0.00 0.00 0.00 94 1019.9
20180123131657 18 148 4.0 6.0 0.00 0.00 0.00 94 1019.8
20180123130657 18 153 9.0 9.0 0.00 0.00 0.00 94 1019.9
20180123125657 19 156 5.0 7.0 0.00 0.00 0.00 94 1019.9
20180123124657 19 141 6.0 6.0 0.00 0.00 0.00 94 1020.0
20180123123657 19 162 4.0 7.0 0.00 0.00 0.00 94 1020.0
20180123122657 19 169 2.0 3.0 0.00 0.00 0.00 94 1019.9
20180123121657 19 127 6.0 6.0 0.00 0.00 0.00 93 1019.9
20180123120657 19 115 5.0 7.0 0.00 0.00 0.00 93 1019.9
20180123115657 19 155 5.0 5.0 0.00 0.00 0.00 93 1019.9
20180123114657 19 201 4.0 5.0 0.00 0.00 0.00 93 1020.0
20180123113657 19 124 3.0 5.0 0.00 0.00 0.00 93 1020.0
20180123112657 19 132 3.0 4.0 0.00 0.00 0.00 93 1019.8
20180123111657 19 207 4.0 6.0 0.00 0.00 0.00 93 1019.7
20180123110657 19 163 5.0 6.0 0.00 0.00 0.00 93 1019.6
20180123105657 20 141 4.0 6.0 0.00 0.00 0.00 93 1019.6
20180123104657 20 149 8.0 8.0 0.00 0.00 0.00 93 1019.6
20180123103657 20 120 4.0 4.0 0.00 0.00 0.00 93 1019.6
20180123102657 20 162 5.0 6.0 0.00 0.00 0.00 93 1019.6
20180123101657 20 218 3.0 3.0 0.00 0.00 0.00 93 1019.6
20180123100657 20 155 4.0 7.0 0.00 0.00 0.00 92 1019.7
20180123095657 20 197 3.0 5.0 0.00 0.00 0.00 92 1019.8
20180123094657 20 159 3.0 5.0 0.00 0.00 0.00 92 1019.9
20180123093657 20 156 6.0 6.0 0.00 0.00 0.00 92 1019.9
20180123092657 20 173 4.0 5.0 0.00 0.00 0.00 92 1019.9
20180123091657 20 150 4.0 7.0 0.00 0.00 0.00 92 1019.9
20180123090657 20 163 4.0 7.0 0.00 0.00 0.00 92 1019.9
20180123085656 20 155 6.0 7.0 0.00 0.00 0.00 91 1019.9
20180123084657 20 155 4.0 5.0 0.00 0.00 0.00 91 1020.0
20180123083657 20 200 5.0 7.0 0.00 0.00 0.00 91 1019.9
20180123082656 20 181 4.0 4.0 0.00 0.00 0.00 91 1020.0
20180123081656 21 165 4.0 5.0 0.00 0.00 0.00 90 1020.0
20180123080656 21 215 5.0 5.0 0.00 0.00 0.00 90 1020.0
20180123075656 21 150 5.0 5.0 0.00 0.00 0.00 90 1020.0
20180123074657 21 131 5.0 5.0 0.00 0.00 0.00 89 1020.1
20180123073657 21 138 4.0 4.0 0.00 0.00 0.00 89 1020.3
20180123072656 22 138 3.0 5.0 0.00 0.00 0.00 88 1020.3
20180123071656 22 118 0.0 0.0 0.00 0.00 0.00 88 1020.4
20180123070657 22 190 4.0 5.0 0.00 0.00 0.00 88 1020.4
20180123065656 22 115 0.0 0.0 0.00 0.00 0.00 87 1020.4
20180123064656 22 145 5.0 5.0 0.00 0.00 0.00 87 1020.3
20180123063656 22 191 0.0 0.0 0.00 0.00 0.00 86 1020.4
20180123062657 22 218 4.0 4.0 0.00 0.00 0.00 86 1020.5
20180123061656 22 190 0.0 0.0 0.00 0.00 0.00 86 1020.6
20180123060656 22 186 0.0 2.0 0.00 0.00 0.00 86 1020.7
20180123055656 22 183 4.0 5.0 0.00 0.00 0.00 87 1020.6
20180123054656 22 121 3.0 3.0 0.00 0.00 0.00 87 1020.7
20180123053656 22 129 3.0 4.0 0.00 0.00 0.00 87 1020.6